sensor_id;sensor_type;location;lat;lon;timestamp;pressure;altitude;pressure_sealevel;temperature;humidity
6387;BME280;3226;42.162;24.756;2022-08-19T00:01:45;99156.78;;;25.82;47.23
6387;BME280;3226;42.162;24.756;2022-08-19T00:04:20;99154.44;;;25.45;48.50
6387;BME280;3226;42.162;24.756;2022-08-19T00:06:50;99157.19;;;24.97;49.77
6387;BME280;3226;42.162;24.756;2022-08-19T00:09:19;99144.31;;;24.51;50.57
6387;BME280;3226;42.162;24.756;2022-08-19T00:11:47;99151.72;;;24.80;49.79
6387;BME280;3226;42.162;24.756;2022-08-19T00:14:16;99145.91;;;24.83;49.82
6387;BME280;3226;42.162;24.756;2022-08-19T00:16:46;99145.16;;;25.11;49.67
6387;BME280;3226;42.162;24.756;2022-08-19T00:19:15;99149.38;;;24.95;50.05
6387;BME280;3226;42.162;24.756;2022-08-19T00:21:44;99149.91;;;24.74;50.35
6387;BME280;3226;42.162;24.756;2022-08-19T00:24:13;99146.47;;;24.85;50.55
6387;BME280;3226;42.162;24.756;2022-08-19T00:26:42;99158.47;;;25.06;49.72
6387;BME280;3226;42.162;24.756;2022-08-19T00:29:13;99152.63;;;24.97;49.63
6387;BME280;3226;42.162;24.756;2022-08-19T00:31:42;99150.91;;;25.03;49.23
6387;BME280;3226;42.162;24.756;2022-08-19T00:34:12;99146.59;;;24.90;49.90
6387;BME280;3226;42.162;24.756;2022-08-19T00:36:41;99143.81;;;24.85;50.54
6387;BME280;3226;42.162;24.756;2022-08-19T00:39:10;99137.63;;;24.96;50.42
6387;BME280;3226;42.162;24.756;2022-08-19T00:41:38;99134.25;;;24.89;50.44
6387;BME280;3226;42.162;24.756;2022-08-19T00:44:09;99131.00;;;24.87;50.86
6387;BME280;3226;42.162;24.756;2022-08-19T00:46:39;99137.72;;;25.02;50.67
6387;BME280;3226;42.162;24.756;2022-08-19T00:49:11;99124.69;;;24.81;51.02
6387;BME280;3226;42.162;24.756;2022-08-19T00:51:45;99122.59;;;24.83;50.77
6387;BME280;3226;42.162;24.756;2022-08-19T00:54:15;99124.47;;;24.83;50.54
6387;BME280;3226;42.162;24.756;2022-08-19T00:56:43;99127.97;;;24.83;50.49
6387;BME280;3226;42.162;24.756;2022-08-19T00:59:13;99110.25;;;25.06;50.12
6387;BME280;3226;42.162;24.756;2022-08-19T01:02:02;99103.47;;;25.04;50.01
6387;BME280;3226;42.162;24.756;2022-08-19T01:04:30;99107.28;;;25.20;49.35
6387;BME280;3226;42.162;24.756;2022-08-19T01:07:01;99101.94;;;25.20;49.56
6387;BME280;3226;42.162;24.756;2022-08-19T01:09:30;99105.72;;;24.95;50.14
6387;BME280;3226;42.162;24.756;2022-08-19T01:11:58;99112.22;;;25.11;50.23
6387;BME280;3226;42.162;24.756;2022-08-19T01:14:26;99112.94;;;24.94;50.20
6387;BME280;3226;42.162;24.756;2022-08-19T01:16:54;99112.47;;;24.86;50.24
6387;BME280;3226;42.162;24.756;2022-08-19T01:19:27;99109.31;;;25.01;50.15
6387;BME280;3226;42.162;24.756;2022-08-19T01:22:13;99118.88;;;24.96;50.03
6387;BME280;3226;42.162;24.756;2022-08-19T01:24:48;99110.63;;;24.98;49.84
6387;BME280;3226;42.162;24.756;2022-08-19T01:27:17;99117.97;;;24.79;50.01
6387;BME280;3226;42.162;24.756;2022-08-19T01:29:46;99120.63;;;24.67;51.14
6387;BME280;3226;42.162;24.756;2022-08-19T01:32:15;99135.25;;;24.29;52.14
6387;BME280;3226;42.162;24.756;2022-08-19T01:34:59;99141.34;;;23.87;52.90
6387;BME280;3226;42.162;24.756;2022-08-19T01:37:28;99138.69;;;23.37;54.62
6387;BME280;3226;42.162;24.756;2022-08-19T01:39:58;99139.28;;;23.21;55.23
6387;BME280;3226;42.162;24.756;2022-08-19T01:42:26;99143.78;;;23.02;56.26
6387;BME280;3226;42.162;24.756;2022-08-19T01:44:56;99144.09;;;22.68;57.11
6387;BME280;3226;42.162;24.756;2022-08-19T01:47:25;99154.72;;;22.43;58.63
6387;BME280;3226;42.162;24.756;2022-08-19T01:49:53;99164.53;;;22.17;59.59
6387;BME280;3226;42.162;24.756;2022-08-19T01:52:21;99161.97;;;22.03;60.67
6387;BME280;3226;42.162;24.756;2022-08-19T01:54:49;99157.00;;;22.07;61.08
6387;BME280;3226;42.162;24.756;2022-08-19T01:57:18;99163.63;;;21.98;61.44
6387;BME280;3226;42.162;24.756;2022-08-19T01:59:46;99164.78;;;21.76;62.16
6387;BME280;3226;42.162;24.756;2022-08-19T02:02:15;99164.59;;;21.64;63.13
6387;BME280;3226;42.162;24.756;2022-08-19T02:04:43;99161.50;;;21.74;62.61
6387;BME280;3226;42.162;24.756;2022-08-19T02:07:12;99170.44;;;21.93;62.59
6387;BME280;3226;42.162;24.756;2022-08-19T02:09:40;99168.03;;;22.17;61.43
6387;BME280;3226;42.162;24.756;2022-08-19T02:12:08;99167.44;;;22.15;61.71
6387;BME280;3226;42.162;24.756;2022-08-19T02:14:37;99166.63;;;22.40;61.06
6387;BME280;3226;42.162;24.756;2022-08-19T02:17:06;99172.28;;;22.25;61.82
6387;BME280;3226;42.162;24.756;2022-08-19T02:19:34;99185.16;;;22.35;61.49
6387;BME280;3226;42.162;24.756;2022-08-19T02:22:06;99190.16;;;22.57;60.74
6387;BME280;3226;42.162;24.756;2022-08-19T02:24:34;99183.19;;;22.56;60.44
6387;BME280;3226;42.162;24.756;2022-08-19T02:27:03;99182.97;;;22.57;60.69
6387;BME280;3226;42.162;24.756;2022-08-19T02:29:31;99178.19;;;22.66;60.19
6387;BME280;3226;42.162;24.756;2022-08-19T02:32:00;99178.72;;;22.49;61.22
6387;BME280;3226;42.162;24.756;2022-08-19T02:34:28;99184.44;;;22.53;61.64
6387;BME280;3226;42.162;24.756;2022-08-19T02:36:56;99190.53;;;22.60;61.42
6387;BME280;3226;42.162;24.756;2022-08-19T02:39:29;99178.94;;;22.48;61.59
6387;BME280;3226;42.162;24.756;2022-08-19T02:41:56;99194.66;;;22.56;61.78
6387;BME280;3226;42.162;24.756;2022-08-19T02:44:26;99191.69;;;22.71;61.24
6387;BME280;3226;42.162;24.756;2022-08-19T02:46:57;99201.16;;;22.67;60.84
6387;BME280;3226;42.162;24.756;2022-08-19T02:49:27;99194.47;;;22.83;60.66
6387;BME280;3226;42.162;24.756;2022-08-19T02:52:00;99190.88;;;22.71;60.84
6387;BME280;3226;42.162;24.756;2022-08-19T02:54:28;99198.59;;;22.79;60.72
6387;BME280;3226;42.162;24.756;2022-08-19T02:56:56;99203.97;;;22.98;60.29
6387;BME280;3226;42.162;24.756;2022-08-19T02:59:25;99197.22;;;22.95;59.60
6387;BME280;3226;42.162;24.756;2022-08-19T03:01:53;99206.38;;;23.06;59.24
6387;BME280;3226;42.162;24.756;2022-08-19T03:04:21;99208.50;;;22.97;59.59
6387;BME280;3226;42.162;24.756;2022-08-19T03:06:51;99204.94;;;22.85;60.02
6387;BME280;3226;42.162;24.756;2022-08-19T03:09:25;99207.47;;;22.98;59.64
6387;BME280;3226;42.162;24.756;2022-08-19T03:11:53;99209.06;;;23.06;59.35
6387;BME280;3226;42.162;24.756;2022-08-19T03:14:21;99205.44;;;23.19;59.26
6387;BME280;3226;42.162;24.756;2022-08-19T03:16:51;99210.16;;;22.98;59.91
6387;BME280;3226;42.162;24.756;2022-08-19T03:19:20;99219.19;;;22.97;60.31
6387;BME280;3226;42.162;24.756;2022-08-19T03:21:50;99225.69;;;22.83;60.62
6387;BME280;3226;42.162;24.756;2022-08-19T03:24:19;99219.03;;;22.92;60.52
6387;BME280;3226;42.162;24.756;2022-08-19T03:26:49;99217.28;;;23.04;59.95
6387;BME280;3226;42.162;24.756;2022-08-19T03:29:20;99224.25;;;23.05;59.85
6387;BME280;3226;42.162;24.756;2022-08-19T03:31:57;99216.53;;;23.16;59.91
6387;BME280;3226;42.162;24.756;2022-08-19T03:34:30;99224.13;;;23.19;58.90
6387;BME280;3226;42.162;24.756;2022-08-19T03:37:04;99235.34;;;23.28;59.12
6387;BME280;3226;42.162;24.756;2022-08-19T03:39:32;99231.06;;;23.27;58.56
6387;BME280;3226;42.162;24.756;2022-08-19T03:42:00;99218.78;;;23.19;58.68
6387;BME280;3226;42.162;24.756;2022-08-19T03:44:49;99232.63;;;23.34;58.13
6387;BME280;3226;42.162;24.756;2022-08-19T03:47:17;99227.72;;;23.31;58.10
6387;BME280;3226;42.162;24.756;2022-08-19T03:49:45;99238.03;;;23.28;58.37
6387;BME280;3226;42.162;24.756;2022-08-19T03:52:15;99243.69;;;23.13;59.44
6387;BME280;3226;42.162;24.756;2022-08-19T03:54:43;99249.50;;;23.35;58.56
6387;BME280;3226;42.162;24.756;2022-08-19T03:57:11;99243.56;;;23.51;58.14
6387;BME280;3226;42.162;24.756;2022-08-19T03:59:39;99241.84;;;23.57;58.22
6387;BME280;3226;42.162;24.756;2022-08-19T04:02:09;99232.47;;;23.48;58.41
6387;BME280;3226;42.162;24.756;2022-08-19T04:04:39;99238.03;;;23.28;59.60
6387;BME280;3226;42.162;24.756;2022-08-19T04:07:09;99237.84;;;22.46;60.88
6387;BME280;3226;42.162;24.756;2022-08-19T04:09:38;99250.41;;;21.87;62.80
6387;BME280;3226;42.162;24.756;2022-08-19T04:12:07;99251.78;;;21.17;65.31
6387;BME280;3226;42.162;24.756;2022-08-19T04:14:35;99247.91;;;20.92;66.60
6387;BME280;3226;42.162;24.756;2022-08-19T04:17:04;99257.91;;;20.84;67.27
6387;BME280;3226;42.162;24.756;2022-08-19T04:19:33;99255.66;;;20.80;67.83
6387;BME280;3226;42.162;24.756;2022-08-19T04:22:02;99258.31;;;21.01;66.52
6387;BME280;3226;42.162;24.756;2022-08-19T04:24:30;99261.16;;;21.46;64.85
6387;BME280;3226;42.162;24.756;2022-08-19T04:27:00;99256.84;;;21.38;65.09
6387;BME280;3226;42.162;24.756;2022-08-19T04:29:29;99254.19;;;21.38;64.83
6387;BME280;3226;42.162;24.756;2022-08-19T04:31:57;99255.66;;;21.28;65.75
6387;BME280;3226;42.162;24.756;2022-08-19T04:34:35;99246.41;;;21.44;64.79
6387;BME280;3226;42.162;24.756;2022-08-19T04:37:24;99250.88;;;21.70;64.82
6387;BME280;3226;42.162;24.756;2022-08-19T04:39:55;99261.28;;;21.85;63.91
6387;BME280;3226;42.162;24.756;2022-08-19T04:42:41;99263.97;;;21.85;63.45
6387;BME280;3226;42.162;24.756;2022-08-19T04:45:13;99266.38;;;21.87;62.92
6387;BME280;3226;42.162;24.756;2022-08-19T04:47:43;99269.22;;;21.99;62.53
6387;BME280;3226;42.162;24.756;2022-08-19T04:50:24;99263.16;;;21.78;62.81
6387;BME280;3226;42.162;24.756;2022-08-19T04:52:52;99266.31;;;22.07;62.79
6387;BME280;3226;42.162;24.756;2022-08-19T04:55:22;99243.81;;;22.35;62.13
6387;BME280;3226;42.162;24.756;2022-08-19T04:57:53;99265.16;;;22.74;60.80
6387;BME280;3226;42.162;24.756;2022-08-19T05:00:22;99265.09;;;22.80;60.85
6387;BME280;3226;42.162;24.756;2022-08-19T05:02:50;99267.63;;;23.01;60.58
6387;BME280;3226;42.162;24.756;2022-08-19T05:05:18;99266.03;;;23.18;60.30
6387;BME280;3226;42.162;24.756;2022-08-19T05:07:47;99262.78;;;23.16;60.35
6387;BME280;3226;42.162;24.756;2022-08-19T05:10:15;99274.13;;;23.37;59.81
6387;BME280;3226;42.162;24.756;2022-08-19T05:12:44;99261.72;;;23.43;59.63
6387;BME280;3226;42.162;24.756;2022-08-19T05:15:13;99266.16;;;23.30;60.11
6387;BME280;3226;42.162;24.756;2022-08-19T05:17:41;99264.03;;;23.39;59.83
6387;BME280;3226;42.162;24.756;2022-08-19T05:20:29;99281.31;;;23.36;60.04
6387;BME280;3226;42.162;24.756;2022-08-19T05:23:15;99268.84;;;23.49;58.90
6387;BME280;3226;42.162;24.756;2022-08-19T05:25:48;99271.03;;;23.77;58.26
6387;BME280;3226;42.162;24.756;2022-08-19T05:28:17;99276.31;;;24.03;57.85
6387;BME280;3226;42.162;24.756;2022-08-19T05:30:46;99276.97;;;24.17;56.43
6387;BME280;3226;42.162;24.756;2022-08-19T05:33:17;99276.44;;;24.27;55.05
6387;BME280;3226;42.162;24.756;2022-08-19T05:35:45;99276.38;;;24.45;55.49
6387;BME280;3226;42.162;24.756;2022-08-19T05:38:16;99275.00;;;24.54;54.03
6387;BME280;3226;42.162;24.756;2022-08-19T05:40:45;99279.22;;;24.62;52.01
6387;BME280;3226;42.162;24.756;2022-08-19T05:43:14;99278.09;;;24.70;51.51
6387;BME280;3226;42.162;24.756;2022-08-19T05:45:43;99270.06;;;24.70;52.07
6387;BME280;3226;42.162;24.756;2022-08-19T05:48:13;99271.69;;;24.71;51.30
6387;BME280;3226;42.162;24.756;2022-08-19T05:50:42;99270.97;;;24.64;51.06
6387;BME280;3226;42.162;24.756;2022-08-19T05:53:10;99273.72;;;24.76;51.21
6387;BME280;3226;42.162;24.756;2022-08-19T05:55:39;99275.03;;;24.97;51.19
6387;BME280;3226;42.162;24.756;2022-08-19T05:58:07;99282.94;;;25.16;50.96
6387;BME280;3226;42.162;24.756;2022-08-19T06:00:35;99285.03;;;25.14;50.79
6387;BME280;3226;42.162;24.756;2022-08-19T06:03:04;99278.41;;;25.04;50.58
6387;BME280;3226;42.162;24.756;2022-08-19T06:05:40;99278.28;;;24.99;51.03
6387;BME280;3226;42.162;24.756;2022-08-19T06:08:18;99288.66;;;25.19;51.00
6387;BME280;3226;42.162;24.756;2022-08-19T06:11:16;99286.31;;;25.35;50.49
6387;BME280;3226;42.162;24.756;2022-08-19T06:13:45;99292.03;;;25.38;50.24
6387;BME280;3226;42.162;24.756;2022-08-19T06:16:16;99293.44;;;25.41;50.23
6387;BME280;3226;42.162;24.756;2022-08-19T06:18:50;99290.19;;;25.63;49.37
6387;BME280;3226;42.162;24.756;2022-08-19T06:21:24;99297.41;;;25.74;49.16
6387;BME280;3226;42.162;24.756;2022-08-19T06:23:54;99293.44;;;25.77;48.85
6387;BME280;3226;42.162;24.756;2022-08-19T06:26:23;99293.22;;;25.66;48.62
6387;BME280;3226;42.162;24.756;2022-08-19T06:28:53;99291.13;;;25.68;47.77
6387;BME280;3226;42.162;24.756;2022-08-19T06:31:24;99297.38;;;25.86;47.75
6387;BME280;3226;42.162;24.756;2022-08-19T06:33:52;99298.16;;;25.98;47.31
6387;BME280;3226;42.162;24.756;2022-08-19T06:36:25;99277.44;;;25.94;47.21
6387;BME280;3226;42.162;24.756;2022-08-19T06:38:58;99305.69;;;26.25;46.14
6387;BME280;3226;42.162;24.756;2022-08-19T06:41:26;99305.91;;;26.36;46.37
6387;BME280;3226;42.162;24.756;2022-08-19T06:43:55;99303.84;;;26.14;46.79
6387;BME280;3226;42.162;24.756;2022-08-19T06:46:24;99303.75;;;26.21;46.65
6387;BME280;3226;42.162;24.756;2022-08-19T06:48:53;99306.00;;;26.41;46.86
6387;BME280;3226;42.162;24.756;2022-08-19T06:51:23;99304.16;;;26.59;46.77
6387;BME280;3226;42.162;24.756;2022-08-19T06:53:58;99295.38;;;26.63;46.28
6387;BME280;3226;42.162;24.756;2022-08-19T06:56:28;99301.00;;;26.79;46.37
6387;BME280;3226;42.162;24.756;2022-08-19T06:59:02;99287.00;;;26.77;46.80
6387;BME280;3226;42.162;24.756;2022-08-19T07:01:34;99289.16;;;26.92;46.31
6387;BME280;3226;42.162;24.756;2022-08-19T07:04:05;99295.13;;;26.82;47.04
6387;BME280;3226;42.162;24.756;2022-08-19T07:06:39;99294.09;;;26.83;45.99
6387;BME280;3226;42.162;24.756;2022-08-19T07:09:12;99289.09;;;26.87;46.00
6387;BME280;3226;42.162;24.756;2022-08-19T07:11:45;99285.00;;;27.01;45.28
6387;BME280;3226;42.162;24.756;2022-08-19T07:14:14;99288.44;;;27.13;45.73
6387;BME280;3226;42.162;24.756;2022-08-19T07:16:46;99275.56;;;26.98;45.34
6387;BME280;3226;42.162;24.756;2022-08-19T07:19:15;99285.84;;;27.02;45.95
6387;BME280;3226;42.162;24.756;2022-08-19T07:21:47;99274.44;;;27.11;45.43
6387;BME280;3226;42.162;24.756;2022-08-19T07:24:16;99253.59;;;27.02;45.27
6387;BME280;3226;42.162;24.756;2022-08-19T07:26:45;99284.97;;;27.35;44.80
6387;BME280;3226;42.162;24.756;2022-08-19T07:29:19;99286.75;;;27.47;45.43
6387;BME280;3226;42.162;24.756;2022-08-19T07:31:54;99281.03;;;27.60;45.52
6387;BME280;3226;42.162;24.756;2022-08-19T07:34:27;99276.00;;;27.64;44.11
6387;BME280;3226;42.162;24.756;2022-08-19T07:36:57;99274.72;;;27.71;43.73
6387;BME280;3226;42.162;24.756;2022-08-19T07:39:29;99281.00;;;27.77;43.96
6387;BME280;3226;42.162;24.756;2022-08-19T07:41:58;99272.25;;;27.87;43.30
6387;BME280;3226;42.162;24.756;2022-08-19T07:44:28;99283.31;;;28.13;43.59
6387;BME280;3226;42.162;24.756;2022-08-19T07:46:56;99270.63;;;28.36;42.19
6387;BME280;3226;42.162;24.756;2022-08-19T07:49:26;99265.72;;;28.27;42.69
6387;BME280;3226;42.162;24.756;2022-08-19T07:51:58;99273.69;;;28.45;41.78
6387;BME280;3226;42.162;24.756;2022-08-19T07:54:29;99278.88;;;28.51;41.88
6387;BME280;3226;42.162;24.756;2022-08-19T07:56:58;99277.06;;;28.62;40.96
6387;BME280;3226;42.162;24.756;2022-08-19T07:59:26;99241.63;;;28.43;41.93
6387;BME280;3226;42.162;24.756;2022-08-19T08:01:56;99272.59;;;28.73;41.52
6387;BME280;3226;42.162;24.756;2022-08-19T08:04:26;99212.00;;;28.43;40.72
6387;BME280;3226;42.162;24.756;2022-08-19T08:07:14;99252.41;;;28.76;41.05
6387;BME280;3226;42.162;24.756;2022-08-19T08:10:00;99268.53;;;29.03;40.94
6387;BME280;3226;42.162;24.756;2022-08-19T08:12:33;99241.22;;;28.89;40.30
6387;BME280;3226;42.162;24.756;2022-08-19T08:15:07;99268.59;;;29.13;40.58
6387;BME280;3226;42.162;24.756;2022-08-19T08:17:39;99268.97;;;29.27;40.29
6387;BME280;3226;42.162;24.756;2022-08-19T08:20:18;99272.00;;;29.36;39.75
6387;BME280;3226;42.162;24.756;2022-08-19T08:22:47;99266.34;;;29.38;40.09
6387;BME280;3226;42.162;24.756;2022-08-19T08:25:34;99261.38;;;29.19;40.00
6387;BME280;3226;42.162;24.756;2022-08-19T08:28:03;99261.19;;;29.36;39.53
6387;BME280;3226;42.162;24.756;2022-08-19T08:30:32;99264.69;;;29.85;38.80
6387;BME280;3226;42.162;24.756;2022-08-19T08:33:03;99249.88;;;29.93;38.56
6387;BME280;3226;42.162;24.756;2022-08-19T08:35:31;99259.56;;;29.89;38.12
6387;BME280;3226;42.162;24.756;2022-08-19T08:38:02;99261.97;;;29.85;38.03
6387;BME280;3226;42.162;24.756;2022-08-19T08:40:38;99259.53;;;29.73;38.30
6387;BME280;3226;42.162;24.756;2022-08-19T08:43:19;99254.47;;;29.97;38.48
6387;BME280;3226;42.162;24.756;2022-08-19T08:45:59;99257.69;;;29.89;38.29
6387;BME280;3226;42.162;24.756;2022-08-19T08:48:34;99249.13;;;30.13;37.88
6387;BME280;3226;42.162;24.756;2022-08-19T08:51:05;99233.47;;;30.15;38.16
6387;BME280;3226;42.162;24.756;2022-08-19T08:53:37;99242.16;;;30.48;37.27
6387;BME280;3226;42.162;24.756;2022-08-19T08:56:09;99234.88;;;30.43;37.35
6387;BME280;3226;42.162;24.756;2022-08-19T08:58:50;99242.75;;;30.71;37.14
6387;BME280;3226;42.162;24.756;2022-08-19T09:01:20;99230.88;;;30.62;36.14
6387;BME280;3226;42.162;24.756;2022-08-19T09:03:56;99234.59;;;30.50;36.15
6387;BME280;3226;42.162;24.756;2022-08-19T09:06:35;99232.50;;;30.63;36.06
6387;BME280;3226;42.162;24.756;2022-08-19T09:09:14;99233.56;;;30.67;36.13
6387;BME280;3226;42.162;24.756;2022-08-19T09:11:50;99218.97;;;30.68;36.04
6387;BME280;3226;42.162;24.756;2022-08-19T09:14:32;99225.97;;;30.95;36.29
6387;BME280;3226;42.162;24.756;2022-08-19T09:17:19;99221.38;;;30.90;35.32
6387;BME280;3226;42.162;24.756;2022-08-19T09:19:56;99226.00;;;30.74;35.22
6387;BME280;3226;42.162;24.756;2022-08-19T09:22:27;99216.25;;;30.73;35.09
6387;BME280;3226;42.162;24.756;2022-08-19T09:24:57;99218.41;;;30.81;35.07
6387;BME280;3226;42.162;24.756;2022-08-19T09:27:26;99218.38;;;31.02;35.25
6387;BME280;3226;42.162;24.756;2022-08-19T09:30:12;99209.75;;;31.00;34.07
6387;BME280;3226;42.162;24.756;2022-08-19T09:32:42;99212.72;;;30.98;34.65
6387;BME280;3226;42.162;24.756;2022-08-19T09:35:11;99208.59;;;31.16;34.75
6387;BME280;3226;42.162;24.756;2022-08-19T09:37:41;99200.50;;;31.32;34.95
6387;BME280;3226;42.162;24.756;2022-08-19T09:40:12;99205.25;;;31.56;34.86
6387;BME280;3226;42.162;24.756;2022-08-19T09:42:41;99211.00;;;32.05;34.43
6387;BME280;3226;42.162;24.756;2022-08-19T09:45:17;99205.97;;;32.92;32.41
6387;BME280;3226;42.162;24.756;2022-08-19T09:47:48;99211.22;;;33.99;30.18
6387;BME280;3226;42.162;24.756;2022-08-19T09:50:21;99199.78;;;35.02;28.54
6387;BME280;3226;42.162;24.756;2022-08-19T09:52:51;99199.63;;;34.79;27.70
6387;BME280;3226;42.162;24.756;2022-08-19T09:55:25;99203.72;;;35.10;27.51
6387;BME280;3226;42.162;24.756;2022-08-19T09:58:00;99198.78;;;35.12;28.47
6387;BME280;3226;42.162;24.756;2022-08-19T10:00:29;99191.63;;;35.02;28.42
6387;BME280;3226;42.162;24.756;2022-08-19T10:02:58;99183.09;;;34.62;28.97
6387;BME280;3226;42.162;24.756;2022-08-19T10:05:26;99183.50;;;34.36;28.99
6387;BME280;3226;42.162;24.756;2022-08-19T10:08:15;99185.81;;;34.09;29.62
6387;BME280;3226;42.162;24.756;2022-08-19T10:10:45;99182.25;;;33.95;29.15
6387;BME280;3226;42.162;24.756;2022-08-19T10:13:17;99177.75;;;33.85;29.87
6387;BME280;3226;42.162;24.756;2022-08-19T10:15:49;99179.44;;;33.81;29.30
6387;BME280;3226;42.162;24.756;2022-08-19T10:18:19;99167.84;;;33.75;29.62
6387;BME280;3226;42.162;24.756;2022-08-19T10:20:49;99167.59;;;33.28;28.71
6387;BME280;3226;42.162;24.756;2022-08-19T10:23:20;99170.09;;;33.49;29.37
6387;BME280;3226;42.162;24.756;2022-08-19T10:25:50;99159.53;;;33.47;29.41
6387;BME280;3226;42.162;24.756;2022-08-19T10:28:20;99160.72;;;33.60;30.05
6387;BME280;3226;42.162;24.756;2022-08-19T10:30:49;99150.88;;;33.64;29.18
6387;BME280;3226;42.162;24.756;2022-08-19T10:33:18;99150.09;;;33.64;29.23
6387;BME280;3226;42.162;24.756;2022-08-19T10:36:09;99150.44;;;33.76;29.08
6387;BME280;3226;42.162;24.756;2022-08-19T10:38:37;99156.38;;;33.78;29.28
6387;BME280;3226;42.162;24.756;2022-08-19T10:41:21;99146.03;;;33.80;29.86
6387;BME280;3226;42.162;24.756;2022-08-19T10:43:51;99149.84;;;33.79;29.79
6387;BME280;3226;42.162;24.756;2022-08-19T10:46:22;99153.44;;;33.94;28.77
6387;BME280;3226;42.162;24.756;2022-08-19T10:48:51;99150.69;;;33.99;29.13
6387;BME280;3226;42.162;24.756;2022-08-19T10:51:19;99145.69;;;34.06;28.34
6387;BME280;3226;42.162;24.756;2022-08-19T10:54:13;99147.13;;;34.17;28.67
6387;BME280;3226;42.162;24.756;2022-08-19T10:56:43;99134.59;;;34.02;28.39
6387;BME280;3226;42.162;24.756;2022-08-19T10:59:21;99139.78;;;34.18;27.46
6387;BME280;3226;42.162;24.756;2022-08-19T11:01:53;99144.81;;;34.25;27.53
6387;BME280;3226;42.162;24.756;2022-08-19T11:04:23;99140.00;;;34.22;28.16
6387;BME280;3226;42.162;24.756;2022-08-19T11:06:55;99126.72;;;34.20;26.83
6387;BME280;3226;42.162;24.756;2022-08-19T11:09:25;99125.81;;;34.25;27.27
6387;BME280;3226;42.162;24.756;2022-08-19T11:12:01;99119.91;;;34.03;27.77
6387;BME280;3226;42.162;24.756;2022-08-19T11:14:31;99119.75;;;34.14;28.14
6387;BME280;3226;42.162;24.756;2022-08-19T11:17:01;99124.19;;;34.24;28.06
6387;BME280;3226;42.162;24.756;2022-08-19T11:19:29;99125.66;;;34.35;27.67
6387;BME280;3226;42.162;24.756;2022-08-19T11:21:57;99118.09;;;34.46;27.37
6387;BME280;3226;42.162;24.756;2022-08-19T11:24:29;99110.97;;;34.36;26.72
6387;BME280;3226;42.162;24.756;2022-08-19T11:27:05;99113.88;;;34.40;27.27
6387;BME280;3226;42.162;24.756;2022-08-19T11:29:34;99113.25;;;34.43;26.97
6387;BME280;3226;42.162;24.756;2022-08-19T11:32:05;99113.63;;;34.55;26.78
6387;BME280;3226;42.162;24.756;2022-08-19T11:34:33;99104.47;;;34.65;25.88
6387;BME280;3226;42.162;24.756;2022-08-19T11:37:02;99108.78;;;34.80;26.90
6387;BME280;3226;42.162;24.756;2022-08-19T11:39:32;99108.59;;;34.91;26.37
6387;BME280;3226;42.162;24.756;2022-08-19T11:42:03;99100.84;;;34.98;26.03
6387;BME280;3226;42.162;24.756;2022-08-19T11:44:52;99111.22;;;34.68;25.83
6387;BME280;3226;42.162;24.756;2022-08-19T11:47:20;99104.03;;;34.11;25.98
6387;BME280;3226;42.162;24.756;2022-08-19T11:49:48;99098.59;;;33.97;25.78
6387;BME280;3226;42.162;24.756;2022-08-19T11:52:16;99099.06;;;34.18;26.07
6387;BME280;3226;42.162;24.756;2022-08-19T11:54:44;99094.84;;;34.40;25.87
6387;BME280;3226;42.162;24.756;2022-08-19T11:57:14;99089.78;;;34.52;25.83
6387;BME280;3226;42.162;24.756;2022-08-19T11:59:48;99087.75;;;34.72;26.33
6387;BME280;3226;42.162;24.756;2022-08-19T12:02:16;99084.03;;;34.68;25.74
6387;BME280;3226;42.162;24.756;2022-08-19T12:04:45;99086.47;;;34.22;26.00
6387;BME280;3226;42.162;24.756;2022-08-19T12:07:14;99077.88;;;34.01;26.48
6387;BME280;3226;42.162;24.756;2022-08-19T12:09:42;99076.19;;;33.86;26.99
6387;BME280;3226;42.162;24.756;2022-08-19T12:12:11;99077.06;;;34.00;26.67
6387;BME280;3226;42.162;24.756;2022-08-19T12:14:41;99075.72;;;34.31;27.09
6387;BME280;3226;42.162;24.756;2022-08-19T12:17:09;99064.22;;;34.53;26.73
6387;BME280;3226;42.162;24.756;2022-08-19T12:19:39;99069.13;;;34.79;26.51
6387;BME280;3226;42.162;24.756;2022-08-19T12:22:07;99066.72;;;34.92;26.07
6387;BME280;3226;42.162;24.756;2022-08-19T12:24:36;99064.91;;;35.01;25.67
6387;BME280;3226;42.162;24.756;2022-08-19T12:27:04;99065.66;;;35.15;26.02
6387;BME280;3226;42.162;24.756;2022-08-19T12:29:38;99059.16;;;35.02;25.80
6387;BME280;3226;42.162;24.756;2022-08-19T12:32:09;99055.81;;;35.20;25.60
6387;BME280;3226;42.162;24.756;2022-08-19T12:34:38;99061.94;;;35.25;25.69
6387;BME280;3226;42.162;24.756;2022-08-19T12:37:06;99058.25;;;35.44;24.55
6387;BME280;3226;42.162;24.756;2022-08-19T12:39:36;99052.47;;;35.59;24.62
6387;BME280;3226;42.162;24.756;2022-08-19T12:42:05;99054.56;;;35.63;25.28
6387;BME280;3226;42.162;24.756;2022-08-19T12:44:35;99052.41;;;35.73;24.92
6387;BME280;3226;42.162;24.756;2022-08-19T12:47:09;99054.91;;;35.61;24.21
6387;BME280;3226;42.162;24.756;2022-08-19T12:49:38;99048.44;;;35.20;24.77
6387;BME280;3226;42.162;24.756;2022-08-19T12:52:23;99045.06;;;35.37;25.48
6387;BME280;3226;42.162;24.756;2022-08-19T12:54:53;99049.66;;;35.51;25.49
6387;BME280;3226;42.162;24.756;2022-08-19T12:57:22;99041.91;;;35.58;25.31
6387;BME280;3226;42.162;24.756;2022-08-19T13:00:01;99041.50;;;35.73;24.47
6387;BME280;3226;42.162;24.756;2022-08-19T13:02:32;99038.22;;;35.85;24.04
6387;BME280;3226;42.162;24.756;2022-08-19T13:05:06;99042.63;;;35.95;23.75
6387;BME280;3226;42.162;24.756;2022-08-19T13:07:35;99038.59;;;35.47;24.24
6387;BME280;3226;42.162;24.756;2022-08-19T13:10:05;99033.19;;;35.33;23.95
6387;BME280;3226;42.162;24.756;2022-08-19T13:12:33;99032.28;;;35.01;24.65
6387;BME280;3226;42.162;24.756;2022-08-19T13:15:02;99034.72;;;35.25;25.33
6387;BME280;3226;42.162;24.756;2022-08-19T13:17:39;99029.91;;;35.22;25.97
6387;BME280;3226;42.162;24.756;2022-08-19T13:20:09;99023.88;;;35.48;25.81
6387;BME280;3226;42.162;24.756;2022-08-19T13:22:40;99027.53;;;35.66;25.27
6387;BME280;3226;42.162;24.756;2022-08-19T13:25:09;99028.38;;;35.75;24.96
6387;BME280;3226;42.162;24.756;2022-08-19T13:27:39;99011.56;;;35.51;24.38
6387;BME280;3226;42.162;24.756;2022-08-19T13:30:10;99024.06;;;35.52;24.72
6387;BME280;3226;42.162;24.756;2022-08-19T13:32:58;99018.56;;;35.66;24.43